createdAt,value
2023-03-05T00:02:07.041Z,1.20
2023-03-05T00:05:11.839Z,1.20
2023-03-05T00:08:16.707Z,1.63
2023-03-05T00:11:21.724Z,1.30
2023-03-05T00:14:26.203Z,1.10
2023-03-05T00:17:31.199Z,1.27
2023-03-05T00:20:36.123Z,1.30
2023-03-05T00:23:40.788Z,1.85
2023-03-05T00:26:46.231Z,1.00
2023-03-05T00:29:51.081Z,1.30
2023-03-05T00:32:55.472Z,1.10
2023-03-05T00:36:02.518Z,1.20
2023-03-05T00:39:07.699Z,1.30
2023-03-05T00:42:12.293Z,1.10
2023-03-05T00:45:16.777Z,1.25
2023-03-05T00:48:22.521Z,1.25
2023-03-05T00:51:27.667Z,1.25
2023-03-05T00:54:32.504Z,1.00
2023-03-05T00:57:36.804Z,1.02
2023-03-05T01:00:41.857Z,1.10
2023-03-05T01:03:46.834Z,1.45
2023-03-05T01:06:51.536Z,1.35
2023-03-05T01:09:56.518Z,1.38
2023-03-05T01:13:01.543Z,1.00
2023-03-05T01:16:06.943Z,1.23
2023-03-05T01:19:12.608Z,1.38
2023-03-05T01:22:17.251Z,1.23
2023-03-05T01:25:21.751Z,1.20
2023-03-05T01:28:28.023Z,1.38
2023-03-05T01:31:32.758Z,1.63
2023-03-05T01:34:37.982Z,1.80
2023-03-05T01:37:42.493Z,1.35
2023-03-05T01:40:47.312Z,1.30
2023-03-05T01:43:52.975Z,1.10
2023-03-05T01:46:57.833Z,1.27
2023-03-05T01:50:07.286Z,1.75
2023-03-05T01:53:13.117Z,1.38
2023-03-05T01:56:18.153Z,1.00
2023-03-05T01:59:24.843Z,1.20
2023-03-05T02:02:30.508Z,1.95
2023-03-05T02:05:38.211Z,1.50
2023-03-05T02:08:43.578Z,1.20
2023-03-05T02:11:47.971Z,1.30
2023-03-05T02:14:59.194Z,2.15
2023-03-05T02:18:05.266Z,1.20
2023-03-05T02:21:11.337Z,1.60
2023-03-05T02:24:33.377Z,1.40
2023-03-05T02:27:39.013Z,1.30
2023-03-05T02:30:43.613Z,1.48
2023-03-05T02:33:49.110Z,1.23
2023-03-05T02:36:55.556Z,1.35
2023-03-05T02:40:01.309Z,1.30
2023-03-05T02:43:06.195Z,1.67
2023-03-05T02:46:11.437Z,1.30
2023-03-05T02:49:16.778Z,1.45
2023-03-05T02:52:23.207Z,1.33
2023-03-05T02:55:29.074Z,1.10
2023-03-05T02:58:34.079Z,1.27
2023-03-05T03:01:38.740Z,1.48
2023-03-05T03:04:44.999Z,1.92
2023-03-05T03:07:49.959Z,2.03
2023-03-05T03:10:56.414Z,1.50
2023-03-05T03:14:01.062Z,1.40
2023-03-05T03:17:12.672Z,1.30
2023-03-05T03:20:18.444Z,1.15
2023-03-05T03:23:22.979Z,1.40
2023-03-05T03:26:27.820Z,1.00
2023-03-05T03:29:33.308Z,1.35
2023-03-05T03:32:37.849Z,1.27
2023-03-05T03:35:42.257Z,1.55
2023-03-05T03:38:46.521Z,2.13
2023-03-05T03:41:53.598Z,1.38
2023-03-05T03:44:57.903Z,1.40
2023-03-05T03:48:02.815Z,1.92
2023-03-05T03:51:07.843Z,1.50
2023-03-05T03:54:14.102Z,1.52
2023-03-05T03:57:18.545Z,1.42
2023-03-05T04:00:23.163Z,1.48
2023-03-05T04:03:27.957Z,1.35
2023-03-05T04:06:33.451Z,1.40
2023-03-05T04:09:38.331Z,1.65
2023-03-05T04:12:43.564Z,1.65
2023-03-05T04:15:48.000Z,1.42
2023-03-05T04:18:53.056Z,1.55
2023-03-05T04:21:59.266Z,1.83
2023-03-05T04:25:06.551Z,1.60
2023-03-05T04:28:12.108Z,1.65
2023-03-05T04:31:17.410Z,2.35
2023-03-05T04:34:22.251Z,1.70
2023-03-05T04:37:27.538Z,1.50
2023-03-05T04:40:32.122Z,2.03
2023-03-05T04:43:36.759Z,1.67
2023-03-05T04:46:41.266Z,1.77
2023-03-05T04:49:46.218Z,1.80
2023-03-05T04:52:50.734Z,1.90
2023-03-05T04:55:55.871Z,2.25
2023-03-05T04:59:00.757Z,2.40
2023-03-05T05:02:10.379Z,2.00
2023-03-05T05:05:20.660Z,2.00
2023-03-05T05:08:26.744Z,1.75
2023-03-05T05:11:31.548Z,1.80
2023-03-05T05:14:36.659Z,2.15
2023-03-05T05:17:41.096Z,2.10
2023-03-05T05:20:46.053Z,1.92
2023-03-05T05:23:50.698Z,1.98
2023-03-05T05:26:56.211Z,2.42
2023-03-05T05:30:01.137Z,1.83
2023-03-05T05:33:06.058Z,2.00
2023-03-05T05:36:16.501Z,2.75
2023-03-05T05:39:21.097Z,1.70
2023-03-05T05:42:26.222Z,1.80
2023-03-05T05:45:30.820Z,1.63
2023-03-05T05:48:36.955Z,2.15
2023-03-05T05:51:42.136Z,1.85
2023-03-05T05:54:46.943Z,1.75
2023-03-05T05:57:51.617Z,1.63
2023-03-05T06:00:55.908Z,1.70
2023-03-05T06:04:00.362Z,1.80
2023-03-05T06:07:05.406Z,1.50
2023-03-05T06:10:11.351Z,1.77
2023-03-05T06:13:15.972Z,1.70
2023-03-05T06:16:24.428Z,2.03
2023-03-05T06:19:29.155Z,2.28
2023-03-05T06:22:38.118Z,1.80
2023-03-05T06:25:42.549Z,2.35
2023-03-05T06:28:47.077Z,1.80
2023-03-05T06:31:51.548Z,1.48
2023-03-05T06:34:56.143Z,1.63
2023-03-05T06:38:00.658Z,1.67
2023-03-05T06:41:12.579Z,1.85
2023-03-05T06:44:16.962Z,1.50
2023-03-05T06:47:21.402Z,1.80
2023-03-05T06:50:25.732Z,1.70
2023-03-05T06:53:30.574Z,1.50
2023-03-05T06:56:38.017Z,1.45
2023-03-05T06:59:42.664Z,1.65
2023-03-05T07:02:47.638Z,1.88
2023-03-05T07:05:52.287Z,1.30
2023-03-05T07:08:58.381Z,1.40
2023-03-05T07:12:02.763Z,1.85
2023-03-05T07:15:08.463Z,1.40
2023-03-05T07:18:12.956Z,1.77
2023-03-05T07:21:20.779Z,1.20
2023-03-05T07:24:29.802Z,1.27
2023-03-05T07:27:38.688Z,1.30
2023-03-05T07:30:43.095Z,1.40
2023-03-05T07:33:51.235Z,1.25
2023-03-05T07:36:56.095Z,1.52
2023-03-05T07:40:00.632Z,1.35
2023-03-05T07:43:05.367Z,1.35
2023-03-05T07:46:14.608Z,1.48
2023-03-05T07:49:18.788Z,1.00
2023-03-05T07:52:23.236Z,1.08
2023-03-05T07:55:27.601Z,1.42
2023-03-05T07:58:32.766Z,1.10
2023-03-05T08:01:37.455Z,1.20
2023-03-05T08:04:43.256Z,1.10
2023-03-05T08:07:47.748Z,1.08
2023-03-05T08:10:52.363Z,1.10
2023-03-05T08:13:59.342Z,1.10
2023-03-05T08:17:05.782Z,0.95
2023-03-05T08:20:11.214Z,1.20
2023-03-05T08:23:15.868Z,1.20
2023-03-05T08:26:24.399Z,0.90
2023-03-05T08:29:29.054Z,1.30
2023-03-05T08:32:33.872Z,1.00
2023-03-05T08:35:38.637Z,1.00
2023-03-05T08:38:44.644Z,1.10
2023-03-05T08:41:49.232Z,1.17
2023-03-05T08:44:53.844Z,1.00
2023-03-05T08:47:58.617Z,0.85
2023-03-05T08:51:13.852Z,1.45
2023-03-05T08:54:18.304Z,1.10
2023-03-05T08:57:22.960Z,1.10
2023-03-05T09:00:27.428Z,1.33
2023-03-05T09:03:32.236Z,1.10
2023-03-05T09:06:40.384Z,1.00
2023-03-05T09:09:44.888Z,1.40
2023-03-05T09:12:49.351Z,1.20
2023-03-05T09:15:59.367Z,1.00
2023-03-05T09:19:03.992Z,1.05
2023-03-05T09:22:08.486Z,0.90
2023-03-05T09:25:13.539Z,0.85
2023-03-05T09:28:18.190Z,0.82
2023-03-05T09:31:22.898Z,0.90
2023-03-05T09:34:27.325Z,0.93
2023-03-05T09:37:32.595Z,0.70
2023-03-05T09:40:59.185Z,0.90
2023-03-05T09:44:59.891Z,1.05
2023-03-05T09:48:24.275Z,1.05
2023-03-05T09:51:35.224Z,0.80
2023-03-05T09:54:47.405Z,1.00
2023-03-05T09:58:03.273Z,0.95
2023-03-05T10:01:15.542Z,0.93
2023-03-05T10:04:43.972Z,0.70
2023-03-05T10:08:11.357Z,0.77
2023-03-05T10:11:36.408Z,0.80
2023-03-05T10:14:42.033Z,0.90
2023-03-05T10:18:07.245Z,0.80
2023-03-05T10:21:40.477Z,0.93
2023-03-05T10:25:10.558Z,1.10
2023-03-05T10:28:41.729Z,0.68
2023-03-05T10:32:24.385Z,1.02
2023-03-05T10:36:00.850Z,0.75
2023-03-05T10:39:43.871Z,1.58
2023-03-05T10:43:24.206Z,0.63
2023-03-05T10:46:36.356Z,0.93
2023-03-05T10:49:52.738Z,0.80
2023-03-05T10:53:37.046Z,0.90
2023-03-05T10:56:41.947Z,0.90
2023-03-05T11:00:01.078Z,1.02
2023-03-05T11:03:10.078Z,0.95
2023-03-05T11:06:15.628Z,0.60
2023-03-05T11:09:34.726Z,0.68
2023-03-05T11:12:39.834Z,1.05
2023-03-05T11:15:44.322Z,0.77
2023-03-05T11:18:49.696Z,0.65
2023-03-05T11:22:20.719Z,0.93
2023-03-05T11:25:26.142Z,0.90
2023-03-05T11:28:33.554Z,0.70
2023-03-05T11:31:38.411Z,0.60
2023-03-05T11:34:43.349Z,0.57
2023-03-05T11:38:04.806Z,0.70
2023-03-05T11:41:10.469Z,0.60
2023-03-05T11:44:23.242Z,0.80
2023-03-05T11:47:53.440Z,0.65
2023-03-05T11:51:06.137Z,0.80
2023-03-05T11:54:21.037Z,0.60
2023-03-05T11:57:26.945Z,0.82
2023-03-05T12:00:35.734Z,0.65
2023-03-05T12:03:40.322Z,0.68
2023-03-05T12:06:49.521Z,0.60
2023-03-05T12:09:54.636Z,0.82
2023-03-05T12:13:36.207Z,0.93
2023-03-05T12:17:14.189Z,0.93
2023-03-05T12:21:17.326Z,0.80
2023-03-05T12:24:27.884Z,0.68
2023-03-05T12:27:37.028Z,0.80
2023-03-05T12:30:41.592Z,0.75
2023-03-05T12:33:46.612Z,0.70
2023-03-05T12:36:51.579Z,0.60
2023-03-05T12:40:08.624Z,0.75
2023-03-05T12:43:33.593Z,0.80
2023-03-05T12:46:40.613Z,1.33
2023-03-05T12:49:47.264Z,0.70
2023-03-05T12:52:54.025Z,0.60
2023-03-05T12:56:19.917Z,0.70
2023-03-05T12:59:35.924Z,0.68
2023-03-05T13:02:45.216Z,0.70
2023-03-05T13:05:56.609Z,0.80
2023-03-05T13:09:18.493Z,0.73
2023-03-05T13:12:25.275Z,0.47
2023-03-05T13:15:31.158Z,0.70
2023-03-05T13:18:39.446Z,0.70
2023-03-05T13:21:44.561Z,0.80
2023-03-05T13:25:15.482Z,0.70
2023-03-05T13:28:20.007Z,0.50
2023-03-05T13:31:24.589Z,0.70
2023-03-05T13:34:44.643Z,0.60
2023-03-05T13:37:51.855Z,0.60
2023-03-05T13:41:03.151Z,0.70
2023-03-05T13:44:21.942Z,0.80
2023-03-05T13:47:30.287Z,0.80
2023-03-05T13:50:38.550Z,0.90
2023-03-05T13:53:43.799Z,0.73
2023-03-05T13:57:07.763Z,0.70
2023-03-05T14:00:33.646Z,0.95
2023-03-05T14:03:38.048Z,0.70
2023-03-05T14:06:51.579Z,0.82
2023-03-05T14:09:56.724Z,1.08
2023-03-05T14:13:14.647Z,0.90
2023-03-05T14:16:33.320Z,0.80
2023-03-05T14:19:39.489Z,0.95
2023-03-05T14:22:48.500Z,0.70
2023-03-05T14:25:53.634Z,0.90
2023-03-05T14:29:07.279Z,1.00
2023-03-05T14:32:38.603Z,1.27
2023-03-05T14:35:50.123Z,0.90
2023-03-05T14:38:55.270Z,0.90
2023-03-05T14:42:32.796Z,0.70
2023-03-05T14:45:41.126Z,0.80
2023-03-05T14:48:46.055Z,0.73
2023-03-05T14:51:50.679Z,0.80
2023-03-05T14:54:55.813Z,0.40
2023-03-05T14:58:21.658Z,0.77
2023-03-05T15:01:26.501Z,0.70
2023-03-05T15:04:31.054Z,0.60
2023-03-05T15:07:36.263Z,0.80
2023-03-05T15:10:40.912Z,0.63
2023-03-05T15:13:45.336Z,0.60
2023-03-05T15:16:50.097Z,0.60
2023-03-05T15:19:54.815Z,0.60
2023-03-05T15:22:59.824Z,0.57
2023-03-05T15:26:11.901Z,0.63
2023-03-05T15:29:16.627Z,0.70
2023-03-05T15:32:21.527Z,0.60
2023-03-05T15:35:26.045Z,0.80
2023-03-05T15:38:30.615Z,0.60
2023-03-05T15:41:35.253Z,0.70
2023-03-05T15:44:40.144Z,0.75
2023-03-05T15:47:44.869Z,0.75
2023-03-05T15:50:49.259Z,0.70
2023-03-05T15:53:54.409Z,0.60
2023-03-05T15:56:58.894Z,0.75
2023-03-05T16:00:07.184Z,0.50
2023-03-05T16:03:14.908Z,0.60
2023-03-05T16:06:23.880Z,0.75
2023-03-05T16:09:34.243Z,0.63
2023-03-05T16:12:43.025Z,0.68
2023-03-05T16:15:52.862Z,0.60
2023-03-05T16:18:58.177Z,0.70
2023-03-05T16:22:02.834Z,0.77
2023-03-05T16:25:08.111Z,0.68
2023-03-05T16:28:12.866Z,0.70
2023-03-05T16:31:17.815Z,0.80
2023-03-05T16:34:22.586Z,0.80
2023-03-05T16:37:27.443Z,0.63
2023-03-05T16:40:56.594Z,0.82
2023-03-05T16:43:56.887Z,0.77
2023-03-05T16:47:01.664Z,1.05
2023-03-05T16:50:08.966Z,0.70
2023-03-05T16:53:14.134Z,0.70
2023-03-05T16:56:19.640Z,0.98
2023-03-05T16:59:25.149Z,0.75
2023-03-05T17:02:30.340Z,1.00
2023-03-05T17:05:38.657Z,1.10
2023-03-05T17:08:44.574Z,1.02
2023-03-05T17:11:50.632Z,1.50
2023-03-05T17:14:55.465Z,1.63
2023-03-05T17:18:01.222Z,1.48
2023-03-05T17:21:07.672Z,1.30
2023-03-05T17:24:12.372Z,1.27
2023-03-05T17:27:18.847Z,1.33
2023-03-05T17:30:23.860Z,1.55
2023-03-05T17:33:30.174Z,1.33
2023-03-05T17:36:34.692Z,1.50
2023-03-05T17:39:39.848Z,1.40
2023-03-05T17:42:44.698Z,1.73
2023-03-05T17:45:49.972Z,1.85
2023-03-05T17:48:54.599Z,1.45
2023-03-05T17:51:59.128Z,1.40
2023-03-05T17:55:09.101Z,1.67
2023-03-05T17:58:13.721Z,1.60
2023-03-05T18:01:32.002Z,1.30
2023-03-05T18:04:36.750Z,1.48
2023-03-05T18:07:42.188Z,1.42
2023-03-05T18:10:46.894Z,1.40
2023-03-05T18:13:51.789Z,1.50
2023-03-05T18:16:58.217Z,1.80
2023-03-05T18:20:04.296Z,1.65
2023-03-05T18:23:09.768Z,2.05
2023-03-05T18:26:15.700Z,1.80
2023-03-05T18:29:20.423Z,2.03
2023-03-05T18:32:25.414Z,1.63
2023-03-05T18:35:31.026Z,2.00
2023-03-05T18:38:35.862Z,1.77
2023-03-05T18:41:41.801Z,2.05
2023-03-05T18:44:46.750Z,2.10
2023-03-05T18:47:54.242Z,1.90
2023-03-05T18:50:58.746Z,1.60
2023-03-05T18:54:03.850Z,1.85
2023-03-05T18:57:08.760Z,1.65
2023-03-05T19:00:18.005Z,2.13
2023-03-05T19:03:23.784Z,2.17
2023-03-05T19:06:28.819Z,2.30
2023-03-05T19:09:53.257Z,1.67
2023-03-05T19:13:23.031Z,2.00
2023-03-05T19:16:33.948Z,2.10
2023-03-05T19:19:42.679Z,2.20
2023-03-05T19:22:47.272Z,2.35
2023-03-05T19:25:51.930Z,2.67
2023-03-05T19:28:56.904Z,2.30
2023-03-05T19:32:01.770Z,2.45
2023-03-05T19:35:07.231Z,2.60
2023-03-05T19:38:11.954Z,3.00
2023-03-05T19:41:18.034Z,3.55
2023-03-05T19:44:23.478Z,3.50
2023-03-05T19:47:27.855Z,3.33
2023-03-05T19:50:34.417Z,2.97
2023-03-05T19:53:40.278Z,3.50
2023-03-05T19:56:47.189Z,3.85
2023-03-05T19:59:55.134Z,3.50
2023-03-05T20:02:59.479Z,3.20
2023-03-05T20:06:06.100Z,3.10
2023-03-05T20:09:11.110Z,2.90
2023-03-05T20:12:15.513Z,2.92
2023-03-05T20:15:23.389Z,3.03
2023-03-05T20:18:28.059Z,3.00
2023-03-05T20:21:40.572Z,3.08
2023-03-05T20:24:45.844Z,2.65
2023-03-05T20:27:51.744Z,2.60
2023-03-05T20:30:59.028Z,2.70
2023-03-05T20:34:09.630Z,2.78
2023-03-05T20:37:14.096Z,2.30
2023-03-05T20:40:18.968Z,2.47
2023-03-05T20:43:24.045Z,2.35
2023-03-05T20:46:32.668Z,2.88
2023-03-05T20:49:37.105Z,2.58
2023-03-05T20:52:41.939Z,2.45
2023-03-05T20:55:46.724Z,3.05
2023-03-05T20:58:51.628Z,2.80
2023-03-05T21:01:56.495Z,2.58
2023-03-05T21:05:01.154Z,2.60
2023-03-05T21:08:06.234Z,2.30
2023-03-05T21:11:12.581Z,2.55
2023-03-05T21:14:17.208Z,2.55
2023-03-05T21:17:21.447Z,2.50
2023-03-05T21:20:30.098Z,2.42
2023-03-05T21:23:34.887Z,2.40
2023-03-05T21:26:39.176Z,2.70
2023-03-05T21:29:43.717Z,2.38
2023-03-05T21:32:49.017Z,2.50
2023-03-05T21:35:54.914Z,2.55
2023-03-05T21:39:00.684Z,2.53
2023-03-05T21:42:05.568Z,2.67
2023-03-05T21:45:13.985Z,2.85
2023-03-05T21:48:18.414Z,2.30
2023-03-05T21:51:28.281Z,2.15
2023-03-05T21:54:32.592Z,2.40
2023-03-05T21:57:36.885Z,2.15
2023-03-05T22:00:41.295Z,2.17
2023-03-05T22:03:47.131Z,2.30
2023-03-05T22:06:51.941Z,1.80
2023-03-05T22:09:56.883Z,2.10
2023-03-05T22:13:11.972Z,2.08
2023-03-05T22:16:25.707Z,2.15
2023-03-05T22:19:30.265Z,2.22
2023-03-05T22:22:36.449Z,1.73
2023-03-05T22:25:42.121Z,1.98
2023-03-05T22:28:46.631Z,1.92
2023-03-05T22:31:53.803Z,1.90
2023-03-05T22:34:58.397Z,2.13
2023-03-05T22:38:02.775Z,2.20
2023-03-05T22:41:10.462Z,1.80
2023-03-05T22:44:16.279Z,1.65
2023-03-05T22:47:20.969Z,2.00
2023-03-05T22:50:25.384Z,1.55
2023-03-05T22:53:30.214Z,1.60
2023-03-05T22:56:34.668Z,1.90
2023-03-05T22:59:39.177Z,1.70
2023-03-05T23:02:44.193Z,2.38
2023-03-05T23:05:48.800Z,1.85
2023-03-05T23:08:53.306Z,1.80
2023-03-05T23:11:57.706Z,2.10
2023-03-05T23:15:05.563Z,1.80
2023-03-05T23:18:09.858Z,2.00
2023-03-05T23:21:14.066Z,2.05
2023-03-05T23:24:18.441Z,2.20
2023-03-05T23:27:22.922Z,2.00
2023-03-05T23:30:33.076Z,1.90
2023-03-05T23:33:37.952Z,2.00
2023-03-05T23:36:42.713Z,2.13
2023-03-05T23:39:47.230Z,1.98
2023-03-05T23:42:52.679Z,1.90
2023-03-05T23:45:57.386Z,1.85
2023-03-05T23:49:02.051Z,2.60
2023-03-05T23:52:07.003Z,2.25
2023-03-05T23:55:21.868Z,2.33
2023-03-05T23:58:26.356Z,2.20
